Time;durP1;ratioP1;P1;durP2;ratioP2;P2;SDS_P1;SDS_P2;PMS_P1;PMS_P2;Temp;Humidity;BMP_temperature;BMP_pressure;BME280_temperature;BME280_humidity;BME280_pressure;Samples;Min_cycle;Max_cycle;Signal;HPM_P1;HPM_P2
2020/12/17 00:00:27;;;;;;;83.43;37.33;;;;;;;5.68;83.66;101035.55;126470;1099;102702;-79
2020/12/17 00:03:01;;;;;;;79.37;37.20;;;;;;;5.66;83.05;101034.69;126646;1093;104372;-80
2020/12/17 00:05:28;;;;;;;76.30;35.07;;;;;;;5.66;83.59;101021.74;126476;1098;104363;-79
2020/12/17 00:07:56;;;;;;;79.73;37.47;;;;;;;5.66;83.36;101032.96;126678;1098;102963;-79
2020/12/17 00:10:23;;;;;;;78.47;36.90;;;;;;;5.65;83.51;101033.82;126460;1100;104449;-80
2020/12/17 00:12:51;;;;;;;78.30;36.28;;;;;;;5.67;83.40;101028.64;126453;1100;104552;-79
2020/12/17 00:15:19;;;;;;;74.40;35.90;;;;;;;5.71;83.83;101040.72;126445;1100;104888;-80
2020/12/17 00:17:49;;;;;;;75.60;36.40;;;;;;;5.74;83.42;101040.71;126543;1093;104398;-80
2020/12/17 00:20:20;;;;;;;74.77;36.13;;;;;;;5.75;83.53;101038.16;126673;1098;104442;-79
2020/12/17 00:22:49;;;;;;;76.90;36.55;;;;;;;5.77;83.18;101040.73;126692;1098;104366;-79
2020/12/17 00:25:20;;;;;;;76.47;36.10;;;;;;;5.78;83.02;101034.70;126720;1098;104391;-80
2020/12/17 00:27:47;;;;;;;74.97;35.80;;;;;;;5.79;83.01;101031.25;126645;1098;104455;-79
2020/12/17 00:30:16;;;;;;;72.03;35.23;;;;;;;5.81;83.18;101031.24;126477;1100;104903;-79
2020/12/17 00:32:45;;;;;;;73.13;35.23;;;;;;;5.81;83.04;101031.24;126707;1098;104448;-79
2020/12/17 00:35:14;;;;;;;69.33;34.03;;;;;;;5.83;83.06;101035.55;126731;1098;104442;-79
2020/12/17 00:37:41;;;;;;;75.50;36.00;;;;;;;5.82;83.49;101036.42;126654;1093;103725;-79
2020/12/17 00:40:13;;;;;;;71.43;35.00;;;;;;;5.82;83.01;101044.19;126686;1098;104468;-79
2020/12/17 00:42:45;;;;;;;72.57;34.87;;;;;;;5.79;82.92;101045.91;126471;1100;103077;-79
2020/12/17 00:45:14;;;;;;;73.23;34.60;;;;;;;5.75;82.79;101045.06;126681;1099;104388;-79
2020/12/17 00:47:42;;;;;;;74.47;35.80;;;;;;;5.69;82.70;101038.13;126481;1100;104394;-80
2020/12/17 00:50:11;;;;;;;79.40;35.87;;;;;;;5.64;82.54;101044.17;126459;1099;103273;-79
2020/12/17 00:52:40;;;;;;;77.30;36.03;;;;;;;5.63;82.73;101045.05;126506;1099;102546;-79
2020/12/17 00:55:09;;;;;;;73.23;34.67;;;;;;;5.62;82.69;101045.91;126714;1098;104344;-79
2020/12/17 00:57:37;;;;;;;79.40;36.77;;;;;;;5.62;82.86;101041.59;126488;1093;104519;-79
2020/12/17 01:00:06;;;;;;;71.90;36.07;;;;;;;5.64;83.20;101039.86;126514;1094;103387;-79
2020/12/17 01:02:35;;;;;;;74.23;36.83;;;;;;;5.67;83.43;101044.17;126740;1098;104619;-79
2020/12/17 01:05:04;;;;;;;79.53;37.17;;;;;;;5.69;83.38;101038.13;126659;1093;104260;-79
2020/12/17 01:07:32;;;;;;;73.70;36.67;;;;;;;5.74;83.15;101043.30;126687;1098;104432;-80
2020/12/17 01:10:00;;;;;;;73.67;35.30;;;;;;;5.75;83.01;101045.06;126703;1099;104370;-80
2020/12/17 01:12:27;;;;;;;77.60;35.73;;;;;;;5.74;82.87;101046.78;126707;1099;104359;-79
2020/12/17 01:14:54;;;;;;;78.70;37.77;;;;;;;5.73;82.73;101046.75;126502;1093;104469;-80
2020/12/17 01:17:22;;;;;;;80.92;37.13;;;;;;;5.72;83.21;101047.62;126409;1097;104548;-79
2020/12/17 01:19:50;;;;;;;74.90;36.07;;;;;;;5.75;83.05;101052.83;126485;1100;104480;-79
2020/12/17 01:22:19;;;;;;;74.40;34.77;;;;;;;5.76;82.88;101054.55;126542;1098;104355;-79
2020/12/17 01:24:46;;;;;;;80.03;37.60;;;;;;;5.75;82.86;101047.64;126439;1100;104471;-79
2020/12/17 01:27:14;;;;;;;85.03;38.00;;;;;;;5.75;83.08;101047.64;126558;1098;104503;-79
2020/12/17 01:29:41;;;;;;;79.62;37.75;;;;;;;5.74;82.82;101048.48;126466;1100;104535;-79
2020/12/17 01:32:08;;;;;;;82.30;38.10;;;;;;;5.74;82.88;101053.66;126485;1099;104427;-79
2020/12/17 01:34:35;;;;;;;81.37;38.33;;;;;;;5.74;83.25;101049.38;126440;1099;105608;-79
2020/12/17 01:37:03;;;;;;;83.97;39.27;;;;;;;5.73;83.03;101050.20;126433;1093;104456;-78
2020/12/17 01:39:30;;;;;;;86.65;39.55;;;;;;;5.68;83.14;101051.08;126482;1098;104491;-79
2020/12/17 01:41:57;;;;;;;84.90;39.50;;;;;;;5.63;83.38;101042.45;126632;1098;105092;-80
2020/12/17 01:44:25;;;;;;;85.17;39.27;;;;;;;5.59;83.08;101040.73;126672;1099;104365;-79
2020/12/17 01:46:53;;;;;;;85.23;39.73;;;;;;;5.57;82.96;101042.45;126738;1098;104488;-79
2020/12/17 01:49:25;;;;;;;83.43;38.50;;;;;;;5.56;83.37;101046.73;126552;1100;104472;-79
2020/12/17 01:51:53;;;;;;;82.73;38.23;;;;;;;5.55;83.32;101046.73;126672;1098;104442;-80
2020/12/17 01:54:21;;;;;;;87.43;40.23;;;;;;;5.52;83.50;101045.02;126622;1099;104503;-79
2020/12/17 01:57:01;;;;;;;90.47;40.53;;;;;;;5.51;83.00;101045.88;126513;1099;104512;-79
2020/12/17 01:59:46;;;;;;;87.27;40.50;;;;;;;5.51;83.53;101050.19;126692;1099;104445;-79
2020/12/17 02:02:17;;;;;;;92.40;40.90;;;;;;;5.48;83.07;101057.95;126689;1093;104356;-80
2020/12/17 02:04:46;;;;;;;84.40;39.40;;;;;;;5.45;83.56;101053.64;126466;1096;103634;-80
2020/12/17 02:07:13;;;;;;;89.73;41.40;;;;;;;5.42;83.54;101059.68;126744;1098;104362;-80
2020/12/17 02:09:41;;;;;;;84.80;40.13;;;;;;;5.39;83.59;101049.33;126453;1093;104981;-79
2020/12/17 02:12:08;;;;;;;76.53;35.47;;;;;;;5.37;83.32;101055.34;126525;1099;104360;-80
2020/12/17 02:14:35;;;;;;;77.47;37.23;;;;;;;5.34;83.20;101056.20;126697;1098;104497;-80
2020/12/17 02:17:03;;;;;;;74.13;36.30;;;;;;;5.31;83.04;101058.78;126519;1100;104442;-80
2020/12/17 02:19:30;;;;;;;74.07;36.40;;;;;;;5.30;83.56;101058.78;126629;1098;104471;-79
2020/12/17 02:21:58;;;;;;;74.43;34.73;;;;;;;5.27;83.50;101054.47;126430;1098;104471;-79
2020/12/17 02:24:26;;;;;;;72.77;35.30;;;;;;;5.23;83.41;101057.91;126405;1096;104359;-80
2020/12/17 02:26:53;;;;;;;67.87;33.87;;;;;;;5.18;83.62;101064.77;126444;1094;104387;-80
2020/12/17 02:29:22;;;;;;;67.77;32.77;;;;;;;5.16;83.17;101063.91;126530;1099;103295;-80
2020/12/17 02:31:50;;;;;;;71.53;34.93;;;;;;;5.13;83.16;101056.15;126640;1098;104257;-80
2020/12/17 02:34:18;;;;;;;66.33;33.23;;;;;;;5.12;83.69;101059.59;126469;1100;104378;-80
2020/12/17 02:36:45;;;;;;;70.23;34.87;;;;;;;5.10;83.12;101059.59;126681;1098;104398;-79
2020/12/17 02:39:13;;;;;;;70.00;34.77;;;;;;;5.08;83.79;101060.45;126438;1100;104398;-79
2020/12/17 02:41:40;;;;;;;70.83;34.07;;;;;;;5.09;83.43;101057.00;126448;1100;104362;-79
2020/12/17 02:44:07;;;;;;;66.80;33.40;;;;;;;5.11;83.95;101056.14;126606;1099;105179;-80
2020/12/17 02:46:35;;;;;;;65.63;32.67;;;;;;;5.11;83.29;101061.31;126418;1096;104397;-80
2020/12/17 02:49:03;;;;;;;68.10;33.33;;;;;;;5.09;83.26;101049.25;126421;1093;104388;-79
2020/12/17 02:51:30;;;;;;;65.40;33.40;;;;;;;5.08;83.94;101052.70;126492;1093;104426;-80
2020/12/17 02:53:57;;;;;;;65.17;33.43;;;;;;;5.06;83.64;101044.94;126462;1099;104455;-79
2020/12/17 02:56:25;;;;;;;63.90;32.67;;;;;;;5.05;83.60;101047.52;126705;1099;105783;-80
2020/12/17 02:58:52;;;;;;;69.20;33.75;;;;;;;5.05;83.51;101050.97;126467;1099;104369;-80
2020/12/17 03:01:19;;;;;;;66.63;33.23;;;;;;;5.05;83.39;101053.55;126452;1100;104542;-79
2020/12/17 03:03:46;;;;;;;67.90;33.30;;;;;;;5.03;84.34;101054.41;126427;1097;104461;-79
2020/12/17 03:06:14;;;;;;;66.62;33.08;;;;;;;5.01;83.49;101051.79;126416;1098;104590;-80
2020/12/17 03:08:42;;;;;;;63.13;32.17;;;;;;;5.04;84.27;101061.30;126445;1099;104542;-79
2020/12/17 03:11:09;;;;;;;61.50;31.53;;;;;;;5.05;83.94;101068.20;126440;1099;104949;-79
2020/12/17 03:13:36;;;;;;;56.00;30.90;;;;;;;5.04;83.98;101072.52;126681;1098;104365;-79
2020/12/17 03:16:04;;;;;;;62.90;31.57;;;;;;;5.08;83.57;101065.62;126459;1100;104413;-80
2020/12/17 03:18:31;;;;;;;60.80;31.90;;;;;;;5.08;83.52;101065.62;126614;1098;104537;-80
2020/12/17 03:20:59;;;;;;;58.43;30.53;;;;;;;5.07;83.34;101064.77;126601;1098;104416;-79
2020/12/17 03:23:26;;;;;;;54.97;30.60;;;;;;;5.07;83.56;101057.00;126539;1100;104464;-79
2020/12/17 03:25:53;;;;;;;59.63;31.13;;;;;;;5.07;83.31;101061.31;126432;1100;104362;-79
2020/12/17 03:28:21;;;;;;;56.43;29.50;;;;;;;5.09;83.53;101069.94;126455;1100;104461;-79
2020/12/17 03:30:49;;;;;;;60.10;31.63;;;;;;;5.11;83.89;101058.73;126410;1094;104461;-79
2020/12/17 03:33:17;;;;;;;65.15;32.35;;;;;;;5.08;83.32;101068.20;126511;1098;104478;-79
2020/12/17 03:35:44;;;;;;;68.13;32.73;;;;;;;5.05;83.65;101069.06;126468;1100;104430;-79
2020/12/17 03:38:11;;;;;;;62.40;32.73;;;;;;;5.01;83.00;101072.47;126501;1100;104555;-80
2020/12/17 03:40:38;;;;;;;69.40;32.57;;;;;;;4.99;83.35;101076.78;126563;1098;104512;-79
2020/12/17 03:43:06;;;;;;;65.50;33.53;;;;;;;4.98;83.35;101074.19;126384;1100;104619;-79
2020/12/17 03:45:33;;;;;;;63.03;33.07;;;;;;;4.98;83.72;101071.61;126668;1098;105544;-79
2020/12/17 03:48:00;;;;;;;66.53;34.45;;;;;;;4.97;83.69;101072.47;126670;1099;105024;-82
2020/12/17 03:50:28;;;;;;;68.93;34.27;;;;;;;4.94;83.67;101073.32;126424;1100;104382;-79
2020/12/17 03:52:55;;;;;;;64.77;33.90;;;;;;;4.88;83.88;101069.86;126691;1098;103079;-79
2020/12/17 03:55:22;;;;;;;69.30;35.77;;;;;;;4.85;83.50;101076.75;126437;1094;103098;-79
2020/12/17 03:57:49;;;;;;;67.57;34.97;;;;;;;4.81;84.09;101074.12;126579;1099;104391;-79
2020/12/17 04:00:17;;;;;;;71.53;35.73;;;;;;;4.77;84.11;101070.66;126481;1098;104468;-79
2020/12/17 04:02:44;;;;;;;73.43;36.80;;;;;;;4.74;84.13;101075.82;126564;1098;104481;-80
2020/12/17 04:05:12;;;;;;;71.47;36.07;;;;;;;4.71;84.13;101068.06;126636;1098;104381;-79
2020/12/17 04:07:39;;;;;;;67.63;35.67;;;;;;;4.73;84.61;101075.81;126456;1093;104452;-79
2020/12/17 04:10:06;;;;;;;67.30;35.27;;;;;;;4.71;84.09;101068.06;126544;1098;104403;-79
2020/12/17 04:12:34;;;;;;;70.83;36.17;;;;;;;4.69;83.89;101074.95;126443;1100;104878;-80
2020/12/17 04:15:01;;;;;;;69.42;36.65;;;;;;;4.70;84.09;101075.80;126467;1094;104394;-80
2020/12/17 04:17:28;;;;;;;73.47;37.10;;;;;;;4.68;84.27;101073.22;126423;1100;104642;-79
2020/12/17 04:19:56;;;;;;;70.17;37.23;;;;;;;4.68;84.19;101075.80;126687;1098;104493;-79
2020/12/17 04:22:23;;;;;;;70.00;35.87;;;;;;;4.67;84.75;101068.91;126662;1098;104503;-79
2020/12/17 04:24:50;;;;;;;71.87;37.03;;;;;;;4.63;84.59;101080.05;126547;1099;104442;-78
2020/12/17 04:27:18;;;;;;;71.75;36.40;;;;;;;4.59;84.24;101073.16;126403;1093;104234;-78
2020/12/17 04:29:45;;;;;;;69.23;38.83;;;;;;;4.57;84.95;101072.28;126469;1099;104558;-79
2020/12/17 04:32:13;;;;;;;73.00;36.73;;;;;;;4.55;84.58;101068.83;126484;1093;104462;-79
2020/12/17 04:34:41;;;;;;;69.07;35.10;;;;;;;4.52;84.25;101061.07;126704;1098;104420;-80
2020/12/17 04:37:08;;;;;;;75.80;37.90;;;;;;;4.51;85.02;101069.68;126449;1093;103393;-80
2020/12/17 04:39:35;;;;;;;71.87;37.90;;;;;;;4.49;85.29;101067.09;126457;1098;104486;-79
2020/12/17 04:42:03;;;;;;;69.37;36.23;;;;;;;4.48;84.71;101072.22;126475;1098;104403;-79
2020/12/17 04:44:31;;;;;;;71.00;36.67;;;;;;;4.45;85.30;101069.62;126545;1098;104859;-79
2020/12/17 04:47:03;;;;;;;71.47;37.40;;;;;;;4.42;85.11;101067.89;126469;1100;103272;-79
2020/12/17 04:49:40;;;;;;;77.17;38.27;;;;;;;4.42;85.50;101074.77;126727;1093;104440;-79
2020/12/17 04:52:08;;;;;;;71.30;38.03;;;;;;;4.40;85.54;101076.48;126463;1099;104483;-79
2020/12/17 04:54:35;;;;;;;67.40;36.40;;;;;;;4.39;85.70;101072.17;126720;1098;104472;-80
2020/12/17 04:57:11;;;;;;;71.23;36.50;;;;;;;4.38;85.61;101070.45;126476;1100;104525;-79
2020/12/17 04:59:49;;;;;;;69.30;35.83;;;;;;;4.37;85.34;101076.47;126519;1099;104379;-79
2020/12/17 05:02:20;;;;;;;70.45;37.00;;;;;;;4.37;85.17;101071.31;126706;1099;104480;-79
2020/12/17 05:04:49;;;;;;;72.70;37.30;;;;;;;4.39;85.65;101080.79;126454;1100;104401;-79
2020/12/17 05:07:21;;;;;;;66.07;36.20;;;;;;;4.36;85.37;101072.16;126701;1098;104615;-79
2020/12/17 05:09:50;;;;;;;68.97;35.00;;;;;;;4.35;85.76;101073.02;126435;1093;104276;-78
2020/12/17 05:12:19;;;;;;;69.53;35.50;;;;;;;4.34;86.23;101071.30;126705;1098;102761;-79
2020/12/17 05:14:47;;;;;;;67.53;35.77;;;;;;;4.31;86.20;101071.25;126686;1098;104484;-79
2020/12/17 05:17:15;;;;;;;67.90;36.03;;;;;;;4.28;86.15;101066.06;126674;1098;104510;-79
2020/12/17 05:19:44;;;;;;;66.45;34.00;;;;;;;4.27;85.69;101077.25;126470;1100;104369;-78
2020/12/17 05:22:14;;;;;;;67.17;35.90;;;;;;;4.27;85.95;101064.34;126438;1100;104471;-79
2020/12/17 05:24:46;;;;;;;68.77;36.20;;;;;;;4.27;86.30;101079.83;126759;1099;104449;-79
2020/12/17 05:27:15;;;;;;;64.87;34.40;;;;;;;4.29;85.75;101083.28;126701;1098;104397;-79
2020/12/17 05:29:43;;;;;;;62.43;34.23;;;;;;;4.29;86.42;101078.98;126412;1098;104525;-79
2020/12/17 05:32:17;;;;;;;62.00;33.87;;;;;;;4.29;86.46;101078.98;126572;1100;104891;-79
2020/12/17 05:34:45;;;;;;;68.15;34.85;;;;;;;4.29;86.42;101078.98;126661;1098;104528;-80
2020/12/17 05:37:13;;;;;;;62.60;33.90;;;;;;;4.26;85.88;101073.80;126503;1100;104426;-79
2020/12/17 05:39:58;;;;;;;65.70;33.97;;;;;;;4.25;85.85;101079.83;126468;1098;104452;-79
2020/12/17 05:42:27;;;;;;;62.23;34.13;;;;;;;4.24;86.17;101075.52;126636;1098;106018;-79
2020/12/17 05:44:55;;;;;;;65.10;33.33;;;;;;;4.22;86.01;101080.67;126566;1099;104503;-79
2020/12/17 05:47:22;;;;;;;68.80;35.83;;;;;;;4.21;86.05;101075.50;126509;1096;104391;-79
2020/12/17 05:49:50;;;;;;;65.20;34.67;;;;;;;4.21;86.02;101078.95;126502;1100;104414;-79
2020/12/17 05:52:20;;;;;;;69.57;36.60;;;;;;;4.19;86.22;101075.49;126469;1100;104472;-80
2020/12/17 05:54:54;;;;;;;68.93;34.50;;;;;;;4.19;86.13;101072.91;126689;1098;104436;-79
2020/12/17 05:57:22;;;;;;;62.20;34.50;;;;;;;4.19;87.12;101072.91;126677;1098;104371;-79
2020/12/17 05:59:57;;;;;;;68.13;34.90;;;;;;;4.18;86.52;101066.02;126724;1093;105757;-79
2020/12/17 06:02:26;;;;;;;64.27;34.13;;;;;;;4.16;86.46;101072.89;126447;1094;104560;-79
2020/12/17 06:05:06;;;;;;;60.90;32.97;;;;;;;4.16;86.57;101070.31;126575;1100;104509;-80
2020/12/17 06:07:46;;;;;;;65.70;34.53;;;;;;;4.17;87.19;101078.92;126618;1099;104408;-80
2020/12/17 06:10:30;;;;;;;66.83;33.87;;;;;;;4.16;86.69;101078.06;126657;1098;104535;-79
2020/12/17 06:13:01;;;;;;;59.77;31.77;;;;;;;4.16;87.11;101078.06;126473;1099;104458;-80
2020/12/17 06:15:32;;;;;;;59.67;30.83;;;;;;;4.16;86.54;101083.22;126451;1099;104407;-79
2020/12/17 06:18:02;;;;;;;57.83;31.67;;;;;;;4.17;86.51;101084.09;126687;1093;104477;-79
2020/12/17 06:20:31;;;;;;;60.93;30.80;;;;;;;4.18;86.69;101086.67;126453;1098;104475;-79
2020/12/17 06:23:01;;;;;;;60.60;31.63;;;;;;;4.18;87.04;101090.98;126685;1093;104202;-79
2020/12/17 06:25:31;;;;;;;58.37;31.13;;;;;;;4.17;86.78;101084.95;126691;1093;104414;-78
2020/12/17 06:27:59;;;;;;;57.67;31.10;;;;;;;4.20;86.73;101090.13;126750;1098;104529;-80
2020/12/17 06:30:32;;;;;;;52.50;28.97;;;;;;;4.22;87.17;101092.72;126508;1098;104554;-78
2020/12/17 06:33:05;;;;;;;53.53;29.20;;;;;;;4.22;86.80;101079.81;126467;1099;106542;-79
2020/12/17 06:35:53;;;;;;;52.25;29.05;;;;;;;4.22;86.51;101093.58;126497;1093;104548;-79
2020/12/17 06:38:27;;;;;;;59.40;30.97;;;;;;;4.21;86.73;101081.53;126571;1098;104593;-78
2020/12/17 06:40:56;;;;;;;57.07;30.57;;;;;;;4.22;87.11;101088.42;126474;1098;104420;-79
2020/12/17 06:43:39;;;;;;;61.63;31.77;;;;;;;4.24;86.93;101085.84;126639;1098;104575;-79
2020/12/17 06:46:29;;;;;;;60.77;30.63;;;;;;;4.22;86.43;101093.58;126556;1098;104528;-79
2020/12/17 06:48:58;;;;;;;61.00;30.47;;;;;;;4.21;87.19;101085.83;126698;1098;104410;-79
2020/12/17 06:51:32;;;;;;;57.50;31.53;;;;;;;4.20;87.02;101090.13;126694;1093;104398;-79
2020/12/17 06:54:03;;;;;;;59.50;32.43;;;;;;;4.20;87.31;101095.30;126670;1099;104378;-80
2020/12/17 06:56:30;;;;;;;59.17;30.83;;;;;;;4.18;87.45;101096.14;126541;1098;103179;-80
2020/12/17 06:59:16;;;;;;;64.80;33.07;;;;;;;4.16;87.25;101098.72;126447;1099;104478;-78
2020/12/17 07:01:44;;;;;;;56.25;30.25;;;;;;;4.15;86.83;101101.28;126460;1098;104502;-79
2020/12/17 07:04:32;;;;;;;54.90;28.90;;;;;;;4.14;86.75;101095.26;126529;1100;104438;-79
2020/12/17 07:07:09;;;;;;;57.03;30.53;;;;;;;4.17;87.03;101109.91;126692;1098;104458;-80
2020/12/17 07:09:36;;;;;;;58.30;30.20;;;;;;;4.18;87.46;101103.89;126690;1093;104461;-79
2020/12/17 07:12:04;;;;;;;54.10;30.00;;;;;;;4.20;86.81;101099.59;126419;1098;104554;-79
2020/12/17 07:14:31;;;;;;;60.63;31.63;;;;;;;4.22;86.94;101097.88;126454;1098;104542;-79
2020/12/17 07:17:02;;;;;;;57.45;29.45;;;;;;;4.23;87.25;101095.31;126683;1098;104429;-79
2020/12/17 07:19:39;;;;;;;53.80;29.47;;;;;;;4.28;86.80;101097.05;126475;1099;104398;-80
2020/12/17 07:22:10;;;;;;;57.03;28.17;;;;;;;4.31;86.64;101097.07;126463;1100;104446;-80
2020/12/17 07:24:44;;;;;;;57.77;29.47;;;;;;;4.34;87.16;101097.12;126436;1100;104337;-80
2020/12/17 07:27:24;;;;;;;60.77;31.50;;;;;;;4.38;86.90;101096.28;126700;1099;105313;-79
2020/12/17 07:30:06;;;;;;;57.73;29.57;;;;;;;4.40;86.79;101094.56;126477;1099;104279;-79
2020/12/17 07:32:37;;;;;;;62.03;30.40;;;;;;;4.43;86.41;101099.75;126567;1098;104693;-79
2020/12/17 07:35:07;;;;;;;57.23;31.03;;;;;;;4.46;86.89;101099.76;126524;1100;104397;-80
2020/12/17 07:37:44;;;;;;;61.27;32.97;;;;;;;4.48;87.07;101100.63;126725;1098;104439;-79
2020/12/17 07:40:17;;;;;;;;;;;;;;;4.50;86.97;101096.37;126671;1099;104369;-80
2020/12/17 07:43:15;;;;;;;66.90;32.63;;;;;;;4.51;86.38;101103.26;126703;1098;104451;-79
2020/12/17 07:45:52;;;;;;;60.57;31.47;;;;;;;4.51;86.76;101095.51;126406;1100;104404;-79
2020/12/17 07:48:42;;;;;;;62.48;33.70;;;;;;;4.50;86.68;101097.23;126508;1100;104443;-79
2020/12/17 07:51:13;;;;;;;61.70;32.33;;;;;;;4.56;86.37;101101.56;126700;1093;104465;-79
2020/12/17 07:53:42;;;;;;;63.87;35.13;;;;;;;4.58;86.42;101094.68;126748;1098;103999;-79
2020/12/17 07:56:10;;;;;;;57.60;31.17;;;;;;;4.62;86.57;101095.55;126462;1100;104426;-80
2020/12/17 07:58:39;;;;;;;54.90;30.90;;;;;;;4.64;86.25;101092.12;126680;1099;104397;-79
2020/12/17 08:01:08;;;;;;;51.27;28.63;;;;;;;4.66;86.38;101100.73;126459;1100;103787;-79
2020/12/17 08:03:47;;;;;;;57.20;31.40;;;;;;;4.65;85.96;101104.18;126499;1099;104538;-79
2020/12/17 08:06:19;;;;;;;56.80;31.40;;;;;;;4.66;86.41;101107.63;126465;1094;104407;-79
2020/12/17 08:08:51;;;;;;;55.53;30.90;;;;;;;4.67;85.72;101097.33;126510;1100;104931;-79
2020/12/17 08:11:32;;;;;;;56.53;29.50;;;;;;;4.68;86.37;101103.36;126472;1098;102136;-79
2020/12/17 08:14:05;;;;;;;54.17;30.27;;;;;;;4.68;86.13;101104.22;126420;1098;104477;-80
2020/12/17 08:16:34;;;;;;;51.23;29.73;;;;;;;4.67;85.42;101107.66;126649;1098;102405;-79
2020/12/17 08:19:03;;;;;;;54.00;29.53;;;;;;;4.68;85.54;101099.05;126484;1100;104522;-79
2020/12/17 08:21:31;;;;;;;52.30;29.13;;;;;;;4.69;86.00;101100.78;126484;1098;104477;-79
2020/12/17 08:23:58;;;;;;;52.70;29.43;;;;;;;4.69;85.96;101108.53;126687;1098;104474;-79
2020/12/17 08:26:29;;;;;;;55.00;29.47;;;;;;;4.69;85.89;101115.42;126708;1100;104490;-79
2020/12/17 08:28:57;;;;;;;50.37;30.53;;;;;;;4.67;86.04;101117.11;126454;1100;104350;-79
2020/12/17 08:31:27;;;;;;;51.93;29.63;;;;;;;4.67;85.81;101107.66;126485;1093;104384;-79
2020/12/17 08:33:57;;;;;;;53.97;29.50;;;;;;;4.66;85.88;101113.66;126511;1099;104523;-79
2020/12/17 08:36:27;;;;;;;56.97;30.23;;;;;;;4.66;85.97;101116.24;126670;1099;103455;-80
2020/12/17 08:39:17;;;;;;;60.20;32.50;;;;;;;4.65;86.00;101111.06;126505;1098;104449;-79
2020/12/17 08:41:49;;;;;;;54.13;30.27;;;;;;;4.62;85.78;101109.33;126439;1098;104241;-79
2020/12/17 08:44:22;;;;;;;54.13;30.27;;;;;;;4.62;85.41;101118.80;126636;1098;104833;-78
2020/12/17 08:47:01;;;;;;;52.37;29.77;;;;;;;4.61;86.09;101112.78;126590;1098;104417;-78
2020/12/17 08:49:30;;;;;;;52.83;29.27;;;;;;;4.62;85.43;101108.47;126719;1093;104399;-79
2020/12/17 08:51:57;;;;;;;57.05;30.50;;;;;;;4.63;85.99;101111.06;126697;1093;104516;-78
2020/12/17 08:54:34;;;;;;;57.10;31.07;;;;;;;4.67;85.50;101111.94;126418;1100;104548;-78
2020/12/17 08:57:11;;;;;;;58.13;31.37;;;;;;;4.70;85.42;101118.02;126426;1099;104388;-78
2020/12/17 08:59:39;;;;;;;58.90;33.17;;;;;;;4.72;85.91;101115.44;126647;1098;104372;-78
2020/12/17 09:02:06;;;;;;;62.73;34.80;;;;;;;4.73;85.75;101118.02;126443;1099;104414;-79
2020/12/17 09:04:34;;;;;;;61.60;34.33;;;;;;;4.72;85.62;101105.96;126631;1093;104500;-78
2020/12/17 09:07:02;;;;;;;62.10;34.03;;;;;;;4.71;85.07;101108.54;126659;1093;103460;-79
2020/12/17 09:09:33;;;;;;;74.67;39.60;;;;;;;4.69;85.79;101116.28;126419;1099;104461;-79
2020/12/17 09:12:06;;;;;;;74.32;37.83;;;;;;;4.67;85.83;101110.25;126680;1094;104814;-79
2020/12/17 09:14:36;;;;;;;81.23;42.63;;;;;;;4.67;85.75;101107.66;126426;1100;104429;-78
2020/12/17 09:17:13;;;;;;;81.80;42.63;;;;;;;4.66;85.43;101111.08;126415;1100;104504;-79
2020/12/17 09:19:43;;;;;;;82.97;44.03;;;;;;;4.67;85.60;101109.35;126690;1098;104377;-78
2020/12/17 09:22:12;;;;;;;88.80;46.20;;;;;;;4.67;85.88;101105.08;126439;1093;104399;-78
2020/12/17 09:24:45;;;;;;;85.33;45.53;;;;;;;4.66;85.90;101111.08;126466;1093;104398;-78
2020/12/17 09:27:28;;;;;;;83.87;46.40;;;;;;;4.65;85.19;101109.34;126502;1093;104879;-79
2020/12/17 09:30:08;;;;;;;78.13;43.03;;;;;;;4.65;85.37;101108.48;126686;1099;104461;-78
2020/12/17 09:32:38;;;;;;;69.63;40.60;;;;;;;4.64;85.87;101102.45;126638;1093;104234;-78
2020/12/17 09:35:08;;;;;;;78.20;40.77;;;;;;;4.64;85.58;101112.79;126509;1100;104461;-78
2020/12/17 09:37:37;;;;;;;72.67;40.10;;;;;;;4.68;85.33;101111.98;126424;1100;104449;-77
2020/12/17 09:40:07;;;;;;;66.87;38.70;;;;;;;4.71;85.79;101105.95;126453;1093;104468;-77
2020/12/17 09:42:35;;;;;;;69.63;37.23;;;;;;;4.74;85.80;101109.41;126522;1098;104550;-79
2020/12/17 09:45:16;;;;;;;66.30;37.57;;;;;;;4.79;85.61;101106.84;126602;1098;104484;-79
2020/12/17 09:47:45;;;;;;;63.87;37.43;;;;;;;4.80;85.18;101104.27;126415;1096;104807;-78
2020/12/17 09:50:17;;;;;;;69.23;39.03;;;;;;;4.83;85.12;101104.28;126430;1093;105960;-78
2020/12/17 09:52:45;;;;;;;69.20;39.70;;;;;;;4.86;85.13;101098.28;126462;1099;104336;-78
2020/12/17 09:55:13;;;;;;;70.83;40.40;;;;;;;4.89;85.55;101115.52;126454;1098;104372;-78
2020/12/17 09:57:43;;;;;;;71.40;40.83;;;;;;;4.91;85.15;101104.33;126608;1098;104507;-78
2020/12/17 10:00:13;;;;;;;71.90;40.13;;;;;;;4.92;85.22;101102.61;126676;1098;104464;-78
2020/12/17 10:02:42;;;;;;;65.97;37.77;;;;;;;4.93;85.16;101094.86;126447;1093;104550;-78
2020/12/17 10:05:13;;;;;;;67.07;39.30;;;;;;;4.94;85.01;101098.30;126600;1100;102051;-78
2020/12/17 10:07:47;;;;;;;69.47;39.33;;;;;;;4.96;85.00;101099.17;126518;1100;104494;-77
2020/12/17 10:10:15;;;;;;;65.83;37.47;;;;;;;4.98;84.56;101089.70;126443;1100;104500;-79
2020/12/17 10:12:43;;;;;;;64.87;37.07;;;;;;;5.01;84.76;101087.13;126673;1094;104369;-79
2020/12/17 10:15:11;;;;;;;70.27;38.13;;;;;;;5.03;84.48;101086.30;126671;1094;104503;-79
2020/12/17 10:17:38;;;;;;;70.43;39.30;;;;;;;5.05;84.51;101083.72;126699;1093;104382;-79
2020/12/17 10:20:07;;;;;;;69.30;38.97;;;;;;;5.07;84.94;101082.00;126662;1098;104500;-78
2020/12/17 10:22:41;;;;;;;71.83;39.27;;;;;;;5.05;84.25;101088.89;126628;1098;104423;-79
2020/12/17 10:25:09;;;;;;;67.87;40.07;;;;;;;5.05;84.62;101094.06;126510;1099;104435;-79
2020/12/17 10:27:37;;;;;;;70.00;38.53;;;;;;;5.05;83.82;101078.55;126667;1098;104408;-79
2020/12/17 10:30:05;;;;;;;68.03;38.63;;;;;;;5.06;84.55;101088.03;126493;1100;104391;-78
2020/12/17 10:32:34;;;;;;;67.55;38.15;;;;;;;5.05;84.35;101073.38;126463;1093;104564;-79
2020/12/17 10:35:01;;;;;;;63.40;36.37;;;;;;;5.05;83.80;101081.99;126650;1093;104644;-79
2020/12/17 10:37:30;;;;;;;66.15;36.90;;;;;;;5.03;84.33;101077.68;126422;1099;104468;-79
2020/12/17 10:39:57;;;;;;;66.83;37.80;;;;;;;5.03;83.70;101078.55;126453;1099;104436;-79
2020/12/17 10:42:25;;;;;;;67.27;37.57;;;;;;;5.02;84.24;101073.34;126685;1099;104369;-78
2020/12/17 10:44:53;;;;;;;66.40;36.67;;;;;;;5.01;84.21;101066.44;126670;1093;104913;-79
2020/12/17 10:47:21;;;;;;;63.80;37.13;;;;;;;5.01;84.09;101067.30;126393;1096;104430;-80
2020/12/17 10:49:48;;;;;;;65.30;36.40;;;;;;;5.03;83.97;101060.44;126434;1093;104391;-79
2020/12/17 10:52:16;;;;;;;69.77;39.43;;;;;;;5.02;84.31;101068.16;126407;1093;104449;-79
2020/12/17 10:54:43;;;;;;;67.70;38.00;;;;;;;5.01;83.87;101056.09;126694;1099;104448;-78
2020/12/17 10:57:10;;;;;;;65.22;37.15;;;;;;;4.98;84.41;101062.12;126647;1098;104220;-79
2020/12/17 10:59:38;;;;;;;63.70;37.70;;;;;;;4.98;83.89;101067.30;126533;1098;104381;-78
2020/12/17 11:02:05;;;;;;;69.63;37.53;;;;;;;4.98;83.93;101066.44;126669;1098;104461;-78
2020/12/17 11:04:32;;;;;;;64.70;36.83;;;;;;;4.97;83.86;101060.41;126417;1099;104557;-79
2020/12/17 11:06:59;;;;;;;68.37;37.40;;;;;;;4.96;84.56;101062.98;126657;1099;102827;-79
2020/12/17 11:09:29;;;;;;;63.83;36.07;;;;;;;4.96;84.41;101055.23;126705;1098;104379;-80
2020/12/17 11:11:56;;;;;;;67.60;37.90;;;;;;;4.94;84.61;101050.05;126419;1100;104510;-79
2020/12/17 11:14:24;;;;;;;69.53;37.90;;;;;;;4.92;83.93;101051.77;126470;1093;104437;-80